createdAt,value
2022-08-17T00:00:42.746Z,60.66
2022-08-17T00:03:15.393Z,61.27
2022-08-17T00:05:49.444Z,61.02
2022-08-17T00:08:22.578Z,60.81
2022-08-17T00:10:52.580Z,61.76
2022-08-17T00:13:25.268Z,61.35
2022-08-17T00:15:55.621Z,61.34
2022-08-17T00:19:06.512Z,61.26
2022-08-17T00:21:16.143Z,60.88
2022-08-17T00:23:52.596Z,61.30
2022-08-17T00:26:43.671Z,60.99
2022-08-17T00:29:10.841Z,61.02
2022-08-17T00:31:47.944Z,60.75
2022-08-17T00:34:17.577Z,60.83
2022-08-17T00:36:45.631Z,60.98
2022-08-17T00:39:13.740Z,60.77
2022-08-17T00:41:42.370Z,60.88
2022-08-17T00:44:12.041Z,61.14
2022-08-17T00:46:43.917Z,61.07
2022-08-17T00:49:15.922Z,61.55
2022-08-17T00:51:50.874Z,61.32
2022-08-17T00:54:28.030Z,61.23
2022-08-17T00:56:59.813Z,60.86
2022-08-17T00:59:32.912Z,61.18
2022-08-17T01:02:02.530Z,61.36
2022-08-17T01:04:32.328Z,61.79
2022-08-17T01:07:04.540Z,61.82
2022-08-17T01:09:33.840Z,61.95
2022-08-17T01:12:02.014Z,61.74
2022-08-17T01:14:30.050Z,61.70
2022-08-17T01:16:58.265Z,61.98
2022-08-17T01:19:29.603Z,62.36
2022-08-17T01:22:07.701Z,61.96
2022-08-17T01:24:39.227Z,61.85
2022-08-17T01:27:10.668Z,61.66
2022-08-17T01:29:44.301Z,61.68
2022-08-17T01:32:13.011Z,61.62
2022-08-17T01:34:42.551Z,61.62
2022-08-17T01:37:13.181Z,61.80
2022-08-17T01:39:49.123Z,61.93
2022-08-17T01:42:24.614Z,62.18
2022-08-17T01:44:58.999Z,62.52
2022-08-17T01:47:27.303Z,62.68
2022-08-17T01:49:57.851Z,62.70
2022-08-17T01:52:25.897Z,62.55
2022-08-17T01:54:55.849Z,62.54
2022-08-17T01:57:23.864Z,62.20
2022-08-17T01:59:52.075Z,62.01
2022-08-17T02:02:31.340Z,61.70
2022-08-17T02:05:00.019Z,61.67
2022-08-17T02:07:28.698Z,61.61
2022-08-17T02:09:58.395Z,61.80
2022-08-17T02:12:38.278Z,62.12
2022-08-17T02:15:12.403Z,62.58
2022-08-17T02:17:41.467Z,62.55
2022-08-17T02:20:11.515Z,62.75
2022-08-17T02:22:43.647Z,62.96
2022-08-17T02:25:17.512Z,62.99
2022-08-17T02:27:45.702Z,63.06
2022-08-17T02:30:59.850Z,63.11
2022-08-17T02:33:06.401Z,63.39
2022-08-17T02:35:38.243Z,63.22
2022-08-17T02:38:07.305Z,62.78
2022-08-17T02:40:40.596Z,62.09
2022-08-17T02:43:09.901Z,61.67
2022-08-17T02:45:38.102Z,61.93
2022-08-17T02:48:06.442Z,62.31
2022-08-17T02:50:34.501Z,62.32
2022-08-17T02:53:02.926Z,62.43
2022-08-17T02:55:40.117Z,62.85
2022-08-17T02:58:08.301Z,63.08
2022-08-17T03:00:42.284Z,63.17
2022-08-17T03:03:13.563Z,62.93
2022-08-17T03:05:41.774Z,62.78
2022-08-17T03:08:10.459Z,63.03
2022-08-17T03:10:43.622Z,63.22
2022-08-17T03:13:12.631Z,62.82
2022-08-17T03:15:41.577Z,62.85
2022-08-17T03:18:21.966Z,63.00
2022-08-17T03:20:55.244Z,63.04
2022-08-17T03:23:25.282Z,62.68
2022-08-17T03:25:56.037Z,62.91
2022-08-17T03:28:26.065Z,63.03
2022-08-17T03:30:54.320Z,62.90
2022-08-17T03:33:22.953Z,62.95
2022-08-17T03:35:51.644Z,63.17
2022-08-17T03:38:20.291Z,62.89
2022-08-17T03:40:58.796Z,62.56
2022-08-17T03:43:34.445Z,62.57
2022-08-17T03:46:28.423Z,62.24
2022-08-17T03:49:22.065Z,62.38
2022-08-17T03:52:07.954Z,62.44
2022-08-17T03:54:53.541Z,62.05
2022-08-17T03:57:21.793Z,62.37
2022-08-17T03:59:51.679Z,62.31
2022-08-17T04:02:29.057Z,62.39
2022-08-17T04:04:57.951Z,62.19
2022-08-17T04:07:29.587Z,62.26
2022-08-17T04:09:59.295Z,62.29
2022-08-17T04:12:30.721Z,62.18
2022-08-17T04:15:00.713Z,62.39
2022-08-17T04:17:30.246Z,62.31
2022-08-17T04:19:58.373Z,62.29
2022-08-17T04:22:32.572Z,61.90
2022-08-17T04:25:10.125Z,62.12
2022-08-17T04:27:38.181Z,62.17
2022-08-17T04:30:09.624Z,62.51
2022-08-17T04:33:10.646Z,62.33
2022-08-17T04:35:41.717Z,62.67
2022-08-17T04:38:13.535Z,62.87
2022-08-17T04:40:59.771Z,62.87
2022-08-17T04:43:29.595Z,62.44
2022-08-17T04:46:02.592Z,62.11
2022-08-17T04:48:36.159Z,61.81
2022-08-17T04:51:09.549Z,61.77
2022-08-17T04:53:39.499Z,62.12
2022-08-17T04:56:16.116Z,61.77
2022-08-17T04:58:46.210Z,61.96
2022-08-17T05:01:16.485Z,61.71
2022-08-17T05:03:52.113Z,61.96
2022-08-17T05:06:20.427Z,61.83
2022-08-17T05:08:48.522Z,61.68
2022-08-17T05:11:16.707Z,61.77
2022-08-17T05:13:44.988Z,61.48
2022-08-17T05:16:13.229Z,61.26
2022-08-17T05:18:42.635Z,61.20
2022-08-17T05:21:10.662Z,60.97
2022-08-17T05:23:42.609Z,61.13
2022-08-17T05:26:21.947Z,61.15
2022-08-17T05:29:00.558Z,60.80
2022-08-17T05:31:31.933Z,60.49
2022-08-17T05:34:01.493Z,61.27
2022-08-17T05:36:42.153Z,60.82
2022-08-17T05:39:16.333Z,60.98
2022-08-17T05:41:47.750Z,60.92
2022-08-17T05:44:16.319Z,61.04
2022-08-17T05:46:51.062Z,61.28
2022-08-17T05:49:29.472Z,61.01
2022-08-17T05:52:18.766Z,61.32
2022-08-17T05:55:05.912Z,61.07
2022-08-17T05:57:47.516Z,60.94
2022-08-17T06:00:30.568Z,61.08
2022-08-17T06:03:23.401Z,60.78
2022-08-17T06:06:09.766Z,59.58
2022-08-17T06:08:51.715Z,59.45
2022-08-17T06:11:29.501Z,59.72
2022-08-17T06:14:22.430Z,59.91
2022-08-17T06:16:56.891Z,60.81
2022-08-17T06:19:34.335Z,60.56
2022-08-17T06:22:06.632Z,60.83
2022-08-17T06:24:40.024Z,60.89
2022-08-17T06:27:19.755Z,61.33
2022-08-17T06:29:56.763Z,60.48
2022-08-17T06:32:26.549Z,60.43
2022-08-17T06:34:55.276Z,60.44
2022-08-17T06:37:54.799Z,59.49
2022-08-17T06:40:53.011Z,59.80
2022-08-17T06:43:40.203Z,59.86
2022-08-17T06:46:13.906Z,59.55
2022-08-17T06:48:47.721Z,58.45
2022-08-17T06:51:25.856Z,57.47
2022-08-17T06:54:05.794Z,57.79
2022-08-17T06:56:53.808Z,58.07
2022-08-17T06:59:47.190Z,56.99
2022-08-17T07:02:52.001Z,57.32
2022-08-17T07:05:25.018Z,56.45
2022-08-17T07:08:03.697Z,56.96
2022-08-17T07:10:44.172Z,56.56
2022-08-17T07:13:29.404Z,55.81
2022-08-17T07:16:14.638Z,56.11
2022-08-17T07:18:43.699Z,55.90
2022-08-17T07:21:27.365Z,55.63
2022-08-17T07:24:29.632Z,56.58
2022-08-17T07:27:11.003Z,56.03
2022-08-17T07:29:44.454Z,55.58
2022-08-17T07:32:18.247Z,55.97
2022-08-17T07:35:15.264Z,54.74
2022-08-17T07:37:53.142Z,53.84
2022-08-17T07:40:33.443Z,54.66
2022-08-17T07:43:22.206Z,54.48
2022-08-17T07:46:32.568Z,54.46
2022-08-17T07:49:21.914Z,54.14
2022-08-17T07:52:48.517Z,54.72
2022-08-17T07:54:49.723Z,53.94
2022-08-17T07:57:36.656Z,52.47
2022-08-17T08:00:29.197Z,52.68
2022-08-17T08:03:21.620Z,51.27
2022-08-17T08:05:57.326Z,52.07
2022-08-17T08:08:38.466Z,52.73
2022-08-17T08:11:11.507Z,52.31
2022-08-17T08:13:43.927Z,50.91
2022-08-17T08:16:30.141Z,50.14
2022-08-17T08:19:01.651Z,49.96
2022-08-17T08:21:44.500Z,50.00
2022-08-17T08:24:33.830Z,49.63
2022-08-17T08:27:20.355Z,48.93
2022-08-17T08:29:58.021Z,49.44
2022-08-17T08:32:50.311Z,49.52
2022-08-17T08:35:29.531Z,49.79
2022-08-17T08:38:12.111Z,49.63
2022-08-17T08:40:57.234Z,49.17
2022-08-17T08:43:38.033Z,48.67
2022-08-17T08:46:19.698Z,49.76
2022-08-17T08:50:02.195Z,49.84
2022-08-17T08:52:45.414Z,50.64
2022-08-17T08:55:20.735Z,50.63
2022-08-17T08:57:57.858Z,50.44
2022-08-17T09:00:27.742Z,51.72
2022-08-17T09:03:53.037Z,51.43
2022-08-17T09:06:43.375Z,52.03
2022-08-17T09:09:26.900Z,52.77
2022-08-17T09:12:06.423Z,52.56
2022-08-17T09:14:45.021Z,52.74
2022-08-17T09:17:19.856Z,51.70
2022-08-17T09:19:55.945Z,51.34
2022-08-17T09:22:35.832Z,50.79
2022-08-17T09:25:10.002Z,50.82
2022-08-17T09:27:53.137Z,51.41
2022-08-17T09:30:23.656Z,51.61
2022-08-17T09:32:57.580Z,52.74
2022-08-17T09:35:37.054Z,53.26
2022-08-17T09:38:22.164Z,53.46
2022-08-17T09:40:58.081Z,53.77
2022-08-17T09:43:39.319Z,55.95
2022-08-17T09:46:16.849Z,55.80
2022-08-17T09:48:51.624Z,57.16
2022-08-17T09:51:30.525Z,58.72
2022-08-17T09:54:21.049Z,59.63
2022-08-17T09:57:25.873Z,60.61
2022-08-17T10:00:07.746Z,61.55
2022-08-17T10:03:21.922Z,61.92
2022-08-17T10:05:57.479Z,61.59
2022-08-17T10:08:40.194Z,61.85
2022-08-17T10:11:33.462Z,60.79
2022-08-17T10:14:36.720Z,60.84
2022-08-17T10:17:11.100Z,60.14
2022-08-17T10:19:46.308Z,59.56
2022-08-17T10:22:44.633Z,60.00
2022-08-17T10:25:53.649Z,59.80
2022-08-17T10:28:30.399Z,59.81
2022-08-17T10:31:33.766Z,58.83
2022-08-17T10:34:22.721Z,60.69
2022-08-17T10:36:59.390Z,61.69
2022-08-17T10:39:35.838Z,62.17
2022-08-17T10:42:32.435Z,62.20
2022-08-17T10:45:07.641Z,63.73
2022-08-17T10:48:06.150Z,64.83
2022-08-17T10:50:59.672Z,65.72
2022-08-17T10:54:04.839Z,66.81
2022-08-17T10:56:50.966Z,66.87
2022-08-17T10:59:50.860Z,67.11
2022-08-17T11:02:31.454Z,67.61
2022-08-17T11:05:32.330Z,70.07
2022-08-17T11:08:27.592Z,68.44
2022-08-17T11:11:14.861Z,68.35
2022-08-17T11:13:53.013Z,68.82
2022-08-17T11:16:48.102Z,68.91
2022-08-17T11:19:50.013Z,69.16
2022-08-17T11:23:07.519Z,69.00
2022-08-17T11:25:39.685Z,68.65
2022-08-17T11:28:19.938Z,69.60
2022-08-17T11:30:53.213Z,69.64
2022-08-17T11:33:58.081Z,70.03
2022-08-17T11:37:31.564Z,68.92
2022-08-17T11:40:38.580Z,69.51
2022-08-17T11:43:33.476Z,69.15
2022-08-17T11:46:18.662Z,70.00
2022-08-17T11:49:27.691Z,70.41
2022-08-17T11:52:39.357Z,71.01
2022-08-17T11:55:33.883Z,71.02
2022-08-17T11:58:03.929Z,70.67
2022-08-17T12:00:57.356Z,70.65
2022-08-17T12:03:54.321Z,71.25
2022-08-17T12:06:35.727Z,70.68
2022-08-17T12:09:14.681Z,70.25
2022-08-17T12:12:11.109Z,70.50
2022-08-17T12:15:08.499Z,70.28
2022-08-17T12:17:41.550Z,69.48
2022-08-17T12:20:17.152Z,69.51
2022-08-17T12:22:57.485Z,69.02
2022-08-17T12:25:35.698Z,68.86
2022-08-17T12:28:07.569Z,68.18
2022-08-17T12:30:37.324Z,67.66
2022-08-17T12:33:13.684Z,66.89
2022-08-17T12:35:59.946Z,66.90
2022-08-17T12:38:32.823Z,66.68
2022-08-17T12:41:26.273Z,68.02
2022-08-17T12:44:01.509Z,67.83
2022-08-17T12:46:33.469Z,68.11
2022-08-17T12:49:25.147Z,67.21
2022-08-17T12:52:07.966Z,66.59
2022-08-17T12:54:50.409Z,66.92
2022-08-17T12:57:24.425Z,67.34
2022-08-17T12:59:59.599Z,67.27
2022-08-17T13:02:45.066Z,66.55
2022-08-17T13:05:23.849Z,68.12
2022-08-17T13:07:54.467Z,67.73
2022-08-17T13:10:32.434Z,67.26
2022-08-17T13:13:05.799Z,63.34
2022-08-17T13:15:44.506Z,62.84
2022-08-17T13:18:38.901Z,61.84
2022-08-17T13:21:12.471Z,63.60
2022-08-17T13:23:48.822Z,62.34
2022-08-17T13:26:32.732Z,60.92
2022-08-17T13:29:06.227Z,60.82
2022-08-17T13:31:50.416Z,60.30
2022-08-17T13:34:38.120Z,56.94
2022-08-17T13:37:33.433Z,56.55
2022-08-17T13:40:36.506Z,58.52
2022-08-17T13:43:05.415Z,57.68
2022-08-17T13:45:52.211Z,56.64
2022-08-17T13:48:26.176Z,55.84
2022-08-17T13:51:26.281Z,56.20
2022-08-17T13:54:28.991Z,55.01
2022-08-17T13:57:02.272Z,54.21
2022-08-17T13:59:54.884Z,51.29
2022-08-17T14:02:25.948Z,51.02
2022-08-17T14:04:57.855Z,50.54
2022-08-17T14:07:34.593Z,51.09
2022-08-17T14:10:10.196Z,48.79
2022-08-17T14:12:43.406Z,48.96
2022-08-17T14:15:14.025Z,49.57
2022-08-17T14:17:42.280Z,49.53
2022-08-17T14:20:13.486Z,49.31
2022-08-17T14:22:47.135Z,48.27
2022-08-17T14:25:18.650Z,48.08
2022-08-17T14:27:53.375Z,48.49
2022-08-17T14:30:24.971Z,48.41
2022-08-17T14:32:54.197Z,47.90
2022-08-17T14:35:24.841Z,47.85
2022-08-17T14:37:53.688Z,48.22
2022-08-17T14:40:24.654Z,47.55
2022-08-17T14:42:56.668Z,46.53
2022-08-17T14:45:31.662Z,46.79
2022-08-17T14:48:05.544Z,47.07
2022-08-17T14:50:35.478Z,47.91
2022-08-17T14:53:05.608Z,47.69
2022-08-17T14:55:34.549Z,48.36
2022-08-17T14:58:04.897Z,46.65
2022-08-17T15:00:33.561Z,45.11
2022-08-17T15:03:03.386Z,45.25
2022-08-17T15:05:34.783Z,45.58
2022-08-17T15:08:04.579Z,46.26
2022-08-17T15:10:33.870Z,46.61
2022-08-17T15:13:03.457Z,46.01
2022-08-17T15:15:31.905Z,45.82
2022-08-17T15:18:01.110Z,45.74
2022-08-17T15:20:30.831Z,45.67
2022-08-17T15:22:59.590Z,45.36
2022-08-17T15:25:32.922Z,45.44
2022-08-17T15:28:03.064Z,45.28
2022-08-17T15:30:32.095Z,44.32
2022-08-17T15:33:04.065Z,44.40
2022-08-17T15:35:34.719Z,44.76
2022-08-17T15:38:11.630Z,44.55
2022-08-17T15:40:44.898Z,45.21
2022-08-17T15:43:17.376Z,45.16
2022-08-17T15:45:52.502Z,46.05
2022-08-17T15:48:40.607Z,45.37
2022-08-17T15:51:11.615Z,47.39
2022-08-17T15:53:41.195Z,47.14
2022-08-17T15:56:09.588Z,46.96
2022-08-17T15:58:40.085Z,46.49
2022-08-17T16:01:16.490Z,46.39
2022-08-17T16:04:04.655Z,46.12
2022-08-17T16:06:36.169Z,46.80
2022-08-17T16:09:04.761Z,46.65
2022-08-17T16:11:32.817Z,46.17
2022-08-17T16:14:02.214Z,46.36
2022-08-17T16:16:31.240Z,46.34
2022-08-17T16:18:59.449Z,46.56
2022-08-17T16:21:29.583Z,47.32
2022-08-17T16:24:02.263Z,47.32
2022-08-17T16:26:32.537Z,47.41
2022-08-17T16:29:06.131Z,47.08
2022-08-17T16:31:35.927Z,47.50
2022-08-17T16:34:17.305Z,47.63
2022-08-17T16:36:53.723Z,48.08
2022-08-17T16:39:25.180Z,48.50
2022-08-17T16:41:53.196Z,48.89
2022-08-17T16:44:23.108Z,48.39
2022-08-17T16:46:51.425Z,48.37
2022-08-17T16:49:32.436Z,48.26
2022-08-17T16:52:09.706Z,48.31
2022-08-17T16:54:40.569Z,48.10
2022-08-17T16:57:08.707Z,48.15
2022-08-17T16:59:41.997Z,48.69
2022-08-17T17:02:15.154Z,48.80
2022-08-17T17:04:52.591Z,48.59
2022-08-17T17:07:49.573Z,48.56
2022-08-17T17:10:22.226Z,48.53
2022-08-17T17:13:01.689Z,48.21
2022-08-17T17:15:54.989Z,48.40
2022-08-17T17:18:40.113Z,48.87
2022-08-17T17:21:15.162Z,50.43
2022-08-17T17:23:55.974Z,50.83
2022-08-17T17:26:55.188Z,51.14
2022-08-17T17:29:47.769Z,51.87
2022-08-17T17:32:22.797Z,51.64
2022-08-17T17:34:58.706Z,52.26
2022-08-17T17:37:33.336Z,52.82
2022-08-17T17:40:07.576Z,53.28
2022-08-17T17:42:36.512Z,53.70
2022-08-17T17:45:13.044Z,53.29
2022-08-17T17:47:42.723Z,53.21
2022-08-17T17:50:11.578Z,54.06
2022-08-17T17:52:55.773Z,53.83
2022-08-17T17:55:44.011Z,54.82
2022-08-17T17:58:34.176Z,55.63
2022-08-17T18:01:26.300Z,56.15
2022-08-17T18:04:18.919Z,57.50
2022-08-17T18:07:20.545Z,58.01
2022-08-17T18:10:04.861Z,58.61
2022-08-17T18:12:59.168Z,58.98
2022-08-17T18:15:33.972Z,58.89
2022-08-17T18:18:28.745Z,59.20
2022-08-17T18:21:06.403Z,59.54
2022-08-17T18:23:35.192Z,60.03
2022-08-17T18:26:03.288Z,60.63
2022-08-17T18:28:38.915Z,60.45
2022-08-17T18:31:16.407Z,60.72
2022-08-17T18:33:47.234Z,60.57
2022-08-17T18:36:29.773Z,60.55
2022-08-17T18:39:15.146Z,60.41
2022-08-17T18:41:45.789Z,60.49
2022-08-17T18:44:26.363Z,60.29
2022-08-17T18:47:13.212Z,60.32
2022-08-17T18:49:44.195Z,60.58
2022-08-17T18:52:23.515Z,59.82
2022-08-17T18:55:05.612Z,59.66
2022-08-17T18:57:37.811Z,60.54
2022-08-17T19:00:15.191Z,60.50
2022-08-17T19:02:53.899Z,60.86
2022-08-17T19:05:35.446Z,60.67
2022-08-17T19:08:24.334Z,59.38
2022-08-17T19:10:56.560Z,59.85
2022-08-17T19:13:31.934Z,59.94
2022-08-17T19:16:14.360Z,60.06
2022-08-17T19:18:49.268Z,60.32
2022-08-17T19:21:23.661Z,60.38
2022-08-17T19:24:01.482Z,59.53
2022-08-17T19:26:54.895Z,59.64
2022-08-17T19:29:34.401Z,59.57
2022-08-17T19:32:03.415Z,59.85
2022-08-17T19:34:35.382Z,60.72
2022-08-17T19:37:12.376Z,60.22
2022-08-17T19:39:56.088Z,59.89
2022-08-17T19:42:37.124Z,59.89
2022-08-17T19:45:16.085Z,59.81
2022-08-17T19:47:56.008Z,61.07
2022-08-17T19:50:38.224Z,61.96
2022-08-17T19:53:20.428Z,61.79
2022-08-17T19:56:01.222Z,61.95
2022-08-17T19:58:48.183Z,61.38
2022-08-17T20:01:29.916Z,61.83
2022-08-17T20:04:13.409Z,61.71
2022-08-17T20:06:49.165Z,61.33
2022-08-17T20:09:33.755Z,61.12
2022-08-17T20:12:10.031Z,61.40
2022-08-17T20:14:53.463Z,62.36
2022-08-17T20:17:28.607Z,62.32
2022-08-17T20:20:07.459Z,61.93
2022-08-17T20:22:55.239Z,61.86
2022-08-17T20:25:34.702Z,61.42
2022-08-17T20:28:16.302Z,60.80
2022-08-17T20:30:45.198Z,61.10
2022-08-17T20:33:27.277Z,61.26
2022-08-17T20:36:18.702Z,61.26
2022-08-17T20:38:50.298Z,61.21
2022-08-17T20:41:22.344Z,61.50
2022-08-17T20:44:05.493Z,61.39
2022-08-17T20:46:57.415Z,61.11
2022-08-17T20:49:33.046Z,61.00
2022-08-17T20:52:08.637Z,60.24
2022-08-17T20:54:48.808Z,60.05
2022-08-17T20:57:49.050Z,60.94
2022-08-17T21:00:46.249Z,60.35
2022-08-17T21:03:52.570Z,61.58
2022-08-17T21:06:25.961Z,61.05
2022-08-17T21:08:59.077Z,60.48
2022-08-17T21:12:04.083Z,60.55
2022-08-17T21:14:54.142Z,60.88
2022-08-17T21:17:41.805Z,60.56
2022-08-17T21:20:36.761Z,60.13
2022-08-17T21:23:23.379Z,60.29
2022-08-17T21:26:13.242Z,60.22
2022-08-17T21:29:01.702Z,60.36
2022-08-17T21:32:10.794Z,60.47
2022-08-17T21:34:43.380Z,60.69
2022-08-17T21:37:34.773Z,60.88
2022-08-17T21:40:24.273Z,61.03
2022-08-17T21:42:56.047Z,60.49
2022-08-17T21:45:29.862Z,61.43
2022-08-17T21:48:18.129Z,61.72
2022-08-17T21:51:03.960Z,61.57
2022-08-17T21:53:41.334Z,61.31
2022-08-17T21:56:12.560Z,61.02
2022-08-17T21:58:48.475Z,61.45
2022-08-17T22:01:24.895Z,61.85
2022-08-17T22:04:03.312Z,61.53
2022-08-17T22:06:38.573Z,61.30
2022-08-17T22:09:18.202Z,60.07
2022-08-17T22:12:05.462Z,59.62
2022-08-17T22:14:52.648Z,59.68
2022-08-17T22:17:25.718Z,60.01
2022-08-17T22:19:57.633Z,60.61
2022-08-17T22:22:34.541Z,59.72
2022-08-17T22:25:06.815Z,59.85
2022-08-17T22:28:03.173Z,60.23
2022-08-17T22:30:38.040Z,59.94
2022-08-17T22:33:37.081Z,60.35
2022-08-17T22:36:25.335Z,60.74
2022-08-17T22:38:57.741Z,60.85
2022-08-17T22:41:40.516Z,61.50
2022-08-17T22:44:17.160Z,62.42
2022-08-17T22:47:11.270Z,62.80
2022-08-17T22:49:54.008Z,63.15
2022-08-17T22:52:35.419Z,63.28
2022-08-17T22:55:32.765Z,64.10
2022-08-17T22:58:19.298Z,62.69
2022-08-17T23:00:49.999Z,62.89
2022-08-17T23:03:20.928Z,62.46
2022-08-17T23:06:03.640Z,62.33
2022-08-17T23:08:34.075Z,62.78
2022-08-17T23:11:03.682Z,62.92
2022-08-17T23:13:33.310Z,62.59
2022-08-17T23:16:02.339Z,62.48
2022-08-17T23:18:30.428Z,62.42
2022-08-17T23:20:58.541Z,62.25
2022-08-17T23:23:26.861Z,62.10
2022-08-17T23:25:55.398Z,62.46
2022-08-17T23:28:24.795Z,63.04
2022-08-17T23:30:52.948Z,62.75
2022-08-17T23:33:27.569Z,63.10
2022-08-17T23:35:55.711Z,62.61
2022-08-17T23:38:25.319Z,63.22
2022-08-17T23:40:53.926Z,63.31
2022-08-17T23:43:25.284Z,63.09
2022-08-17T23:45:57.351Z,62.94
2022-08-17T23:48:34.961Z,63.02
2022-08-17T23:51:12.634Z,62.70
2022-08-17T23:53:46.116Z,62.96
2022-08-17T23:56:15.097Z,63.33
2022-08-17T23:58:46.306Z,62.98
